createdAt,value
2019-05-11T00:00:19.603Z,0
2019-05-11T00:01:19.611Z,0
2019-05-11T00:02:19.600Z,0
2019-05-11T00:03:19.577Z,0
2019-05-11T00:04:19.328Z,0
2019-05-11T00:05:19.581Z,0
2019-05-11T00:06:19.323Z,0
2019-05-11T00:07:19.569Z,0
2019-05-11T00:08:19.601Z,0
2019-05-11T00:09:19.547Z,0
2019-05-11T00:10:22.985Z,0
2019-05-11T00:11:19.535Z,0
2019-05-11T00:12:19.522Z,0
2019-05-11T00:13:19.512Z,0
2019-05-11T00:14:19.514Z,0
2019-05-11T00:15:19.506Z,0
2019-05-11T00:16:21.610Z,0
2019-05-11T00:17:19.498Z,0
2019-05-11T00:18:19.588Z,0
2019-05-11T00:19:19.231Z,0
2019-05-11T00:20:19.596Z,0
2019-05-11T00:21:19.481Z,0
2019-05-11T00:22:19.460Z,0
2019-05-11T00:23:19.459Z,0
2019-05-11T00:24:19.437Z,0
2019-05-11T00:25:19.441Z,0
2019-05-11T00:26:19.420Z,0
2019-05-11T00:27:19.453Z,0
2019-05-11T00:28:19.480Z,0
2019-05-11T00:29:19.411Z,0
2019-05-11T00:30:19.413Z,0
2019-05-11T00:31:19.411Z,0
2019-05-11T00:32:22.529Z,0
2019-05-11T00:33:19.130Z,0
2019-05-11T00:34:19.383Z,0
2019-05-11T00:35:19.380Z,0
2019-05-11T00:36:19.110Z,0
2019-05-11T00:37:19.359Z,0
2019-05-11T00:38:19.342Z,0
2019-05-11T00:39:19.343Z,0
2019-05-11T00:40:22.152Z,0
2019-05-11T00:41:19.327Z,0
2019-05-11T00:42:19.317Z,0
2019-05-11T00:43:19.317Z,0
2019-05-11T00:44:19.311Z,0
2019-05-11T00:45:19.319Z,0
2019-05-11T00:46:19.046Z,0
2019-05-11T00:47:19.031Z,0
2019-05-11T00:48:19.326Z,0
2019-05-11T00:49:19.275Z,0
2019-05-11T00:50:19.274Z,0
2019-05-11T00:51:19.280Z,0
2019-05-11T00:52:19.251Z,0
2019-05-11T00:53:19.267Z,0
2019-05-11T00:54:19.246Z,0
2019-05-11T00:55:19.238Z,0
2019-05-11T00:56:19.232Z,0
2019-05-11T00:57:19.239Z,0
2019-05-11T00:58:19.220Z,0
2019-05-11T00:59:28.774Z,0
2019-05-11T01:00:18.946Z,0
2019-05-11T01:01:19.197Z,0
2019-05-11T01:02:19.211Z,0
2019-05-11T01:03:19.189Z,0
2019-05-11T01:04:18.972Z,0
2019-05-11T01:05:19.225Z,0
2019-05-11T01:06:19.254Z,0
2019-05-11T01:07:19.261Z,0
2019-05-11T01:08:19.176Z,0
2019-05-11T01:09:19.162Z,0
2019-05-11T01:10:46.530Z,0
2019-05-11T01:11:19.127Z,0
2019-05-11T01:12:19.111Z,0
2019-05-11T01:13:19.114Z,0
2019-05-11T01:14:19.115Z,0
2019-05-11T01:15:19.160Z,0
2019-05-11T01:16:19.398Z,0
2019-05-11T01:17:19.087Z,0
2019-05-11T01:18:19.079Z,0
2019-05-11T01:19:19.152Z,0
2019-05-11T01:20:21.132Z,0
2019-05-11T01:21:19.068Z,0
2019-05-11T01:22:19.055Z,0
2019-05-11T01:23:19.059Z,0
2019-05-11T01:24:19.031Z,0
2019-05-11T01:25:19.030Z,0
2019-05-11T01:26:19.068Z,0
2019-05-11T01:27:19.011Z,0
2019-05-11T01:28:18.772Z,0
2019-05-11T01:29:18.743Z,0
2019-05-11T01:30:19.006Z,0
2019-05-11T01:31:19.148Z,0
2019-05-11T01:32:18.990Z,0
2019-05-11T01:33:18.981Z,0
2019-05-11T01:34:18.972Z,0
2019-05-11T01:35:18.860Z,0
2019-05-11T01:36:18.974Z,0
2019-05-11T01:37:18.978Z,0
2019-05-11T01:38:18.946Z,0
2019-05-11T01:39:19.021Z,0
2019-05-11T01:40:18.935Z,0
2019-05-11T01:41:18.925Z,0
2019-05-11T01:42:18.410Z,0
2019-05-11T01:43:18.913Z,0
2019-05-11T01:44:18.899Z,0
2019-05-11T01:45:18.904Z,0
2019-05-11T01:46:18.882Z,0
2019-05-11T01:47:19.202Z,0
2019-05-11T01:48:18.920Z,0
2019-05-11T01:49:18.625Z,0
2019-05-11T01:50:18.866Z,0
2019-05-11T01:51:18.860Z,0
2019-05-11T01:52:18.842Z,0
2019-05-11T01:53:18.838Z,0
2019-05-11T01:54:18.845Z,0
2019-05-11T01:55:18.824Z,0
2019-05-11T01:56:18.849Z,0
2019-05-11T01:57:18.821Z,0
2019-05-11T01:58:18.810Z,0
2019-05-11T01:59:18.809Z,0
2019-05-11T02:00:18.796Z,0
2019-05-11T02:01:18.787Z,0
2019-05-11T02:02:18.782Z,0
2019-05-11T02:03:18.772Z,0
2019-05-11T02:04:18.763Z,0
2019-05-11T02:05:18.761Z,0
2019-05-11T02:06:18.752Z,0
2019-05-11T02:07:18.489Z,0
2019-05-11T02:08:18.748Z,0
2019-05-11T02:09:18.499Z,0
2019-05-11T02:10:18.721Z,0
2019-05-11T02:11:23.294Z,0
2019-05-11T02:12:18.460Z,0
2019-05-11T02:13:18.699Z,0
2019-05-11T02:14:18.704Z,0
2019-05-11T02:15:18.697Z,0
2019-05-11T02:16:18.729Z,0
2019-05-11T02:17:18.679Z,0
2019-05-11T02:18:19.578Z,0
2019-05-11T02:19:18.706Z,0
2019-05-11T02:20:18.664Z,0
2019-05-11T02:21:18.666Z,0
2019-05-11T02:22:18.643Z,0
2019-05-11T02:23:18.655Z,0
2019-05-11T02:24:18.634Z,0
2019-05-11T02:25:18.617Z,0
2019-05-11T02:26:18.620Z,0
2019-05-11T02:27:18.603Z,0
2019-05-11T02:28:18.631Z,0
2019-05-11T02:29:18.592Z,0
2019-05-11T02:30:18.602Z,0
2019-05-11T02:31:18.600Z,0
2019-05-11T02:32:18.583Z,0
2019-05-11T02:33:18.329Z,0
2019-05-11T02:34:18.907Z,0
2019-05-11T02:35:18.566Z,0
2019-05-11T02:36:18.564Z,0
2019-05-11T02:37:18.561Z,0
2019-05-11T02:38:18.607Z,0
2019-05-11T02:39:18.543Z,0
2019-05-11T02:40:18.531Z,0
2019-05-11T02:41:37.635Z,0
2019-05-11T02:42:18.522Z,0
2019-05-11T02:43:18.509Z,0
2019-05-11T02:44:18.500Z,0
2019-05-11T02:45:18.617Z,0
2019-05-11T02:46:18.497Z,0
2019-05-11T02:47:18.491Z,0
2019-05-11T02:48:18.511Z,0
2019-05-11T02:49:18.579Z,0
2019-05-11T02:50:18.503Z,0
2019-05-11T02:51:18.449Z,0
2019-05-11T02:52:18.186Z,0
2019-05-11T02:53:18.442Z,0
2019-05-11T02:54:18.441Z,0
2019-05-11T02:55:18.442Z,0
2019-05-11T02:56:18.424Z,0
2019-05-11T02:57:18.264Z,0
2019-05-11T02:58:18.453Z,0
2019-05-11T02:59:18.423Z,0
2019-05-11T03:00:18.472Z,0
2019-05-11T03:01:18.391Z,0
2019-05-11T03:02:18.380Z,0
2019-05-11T03:03:18.151Z,0
2019-05-11T03:04:18.363Z,0
2019-05-11T03:05:18.601Z,0
2019-05-11T03:06:18.359Z,0
2019-05-11T03:07:18.361Z,0
2019-05-11T03:08:18.385Z,0
2019-05-11T03:09:18.340Z,0
2019-05-11T03:10:18.398Z,0
2019-05-11T03:11:18.070Z,0
2019-05-11T03:12:18.305Z,0
2019-05-11T03:13:18.376Z,0
2019-05-11T03:14:18.092Z,0
2019-05-11T03:15:18.278Z,0
2019-05-11T03:16:18.280Z,0
2019-05-11T03:17:18.042Z,0
2019-05-11T03:18:18.296Z,0
2019-05-11T03:19:18.262Z,0
2019-05-11T03:20:18.241Z,0
2019-05-11T03:21:18.262Z,0
2019-05-11T03:22:18.251Z,0
2019-05-11T03:23:17.981Z,0
2019-05-11T03:24:18.256Z,0
2019-05-11T03:25:18.206Z,0
2019-05-11T03:26:18.206Z,0
2019-05-11T03:27:18.331Z,0
2019-05-11T03:28:18.209Z,0
2019-05-11T03:29:18.190Z,0
2019-05-11T03:30:18.259Z,0
2019-05-11T03:31:18.205Z,0
2019-05-11T03:32:18.198Z,0
2019-05-11T03:33:18.194Z,0
2019-05-11T03:34:18.192Z,0
2019-05-11T03:35:18.186Z,0
2019-05-11T03:36:18.202Z,0
2019-05-11T03:37:18.134Z,0
2019-05-11T03:38:18.143Z,0
2019-05-11T03:39:17.879Z,0
2019-05-11T03:40:18.109Z,0
2019-05-11T03:41:18.202Z,0
2019-05-11T03:42:21.993Z,0
2019-05-11T03:43:18.111Z,0
2019-05-11T03:44:18.090Z,4
2019-05-11T03:45:17.822Z,4
2019-05-11T03:46:18.071Z,4
2019-05-11T03:47:18.077Z,4
2019-05-11T03:48:18.071Z,4
2019-05-11T03:49:18.108Z,0
2019-05-11T03:50:18.044Z,0
2019-05-11T03:51:18.036Z,0
2019-05-11T03:52:18.132Z,0
2019-05-11T03:53:18.015Z,0
2019-05-11T03:54:17.776Z,0
2019-05-11T03:55:18.009Z,4
2019-05-11T03:56:17.995Z,4
2019-05-11T03:57:17.749Z,4
2019-05-11T03:58:17.980Z,4
2019-05-11T03:59:17.983Z,4
2019-05-11T04:00:18.021Z,4
2019-05-11T04:01:17.965Z,4
2019-05-11T04:02:17.965Z,4
2019-05-11T04:03:17.942Z,4
2019-05-11T04:04:21.336Z,0
2019-05-11T04:05:17.928Z,4
2019-05-11T04:06:18.026Z,4
2019-05-11T04:07:17.967Z,4
2019-05-11T04:08:17.919Z,4
2019-05-11T04:09:17.903Z,4
2019-05-11T04:10:17.896Z,8
2019-05-11T04:11:17.886Z,12
2019-05-11T04:12:38.388Z,16
2019-05-11T04:13:17.884Z,20
2019-05-11T04:14:17.887Z,24
2019-05-11T04:15:17.889Z,28
2019-05-11T04:16:17.879Z,32
2019-05-11T04:17:17.852Z,44
2019-05-11T04:18:17.868Z,44
2019-05-11T04:19:17.833Z,36
2019-05-11T04:20:17.839Z,36
2019-05-11T04:21:17.827Z,36
2019-05-11T04:22:17.809Z,40
2019-05-11T04:23:18.022Z,56
2019-05-11T04:24:17.800Z,56
2019-05-11T04:25:17.795Z,44
2019-05-11T04:26:17.802Z,36
2019-05-11T04:27:21.956Z,28
2019-05-11T04:28:17.775Z,36
2019-05-11T04:29:17.763Z,40
2019-05-11T04:30:17.786Z,36
2019-05-11T04:31:17.746Z,36
2019-05-11T04:32:17.747Z,44
2019-05-11T04:33:17.738Z,64
2019-05-11T04:34:17.733Z,68
2019-05-11T04:35:17.737Z,56
2019-05-11T04:36:17.460Z,60
2019-05-11T04:37:17.706Z,60
2019-05-11T04:38:17.699Z,48
2019-05-11T04:39:17.709Z,48
2019-05-11T04:40:17.733Z,52
2019-05-11T04:41:17.723Z,32
2019-05-11T04:42:17.669Z,28
2019-05-11T04:43:17.420Z,24
2019-05-11T04:44:17.171Z,36
2019-05-11T04:45:17.670Z,40
2019-05-11T04:46:17.649Z,36
2019-05-11T04:47:17.639Z,40
2019-05-11T04:48:17.407Z,44
2019-05-11T04:49:17.634Z,48
2019-05-11T04:50:17.630Z,56
2019-05-11T04:51:17.627Z,64
2019-05-11T04:52:17.635Z,52
2019-05-11T04:53:17.600Z,44
2019-05-11T04:54:17.754Z,44
2019-05-11T04:55:17.582Z,40
2019-05-11T04:56:17.398Z,40
2019-05-11T04:57:17.557Z,32
2019-05-11T04:58:17.679Z,40
2019-05-11T04:59:17.550Z,52
2019-05-11T05:00:17.545Z,60
2019-05-11T05:01:17.303Z,68
2019-05-11T05:02:17.556Z,60
2019-05-11T05:03:17.511Z,60
2019-05-11T05:04:21.788Z,60
2019-05-11T05:05:17.519Z,52
2019-05-11T05:06:29.628Z,60
2019-05-11T05:07:21.545Z,68
2019-05-11T05:08:21.000Z,88
2019-05-11T05:09:17.675Z,100
2019-05-11T05:10:25.392Z,88
2019-05-11T05:11:17.460Z,72
2019-05-11T05:12:21.297Z,68
2019-05-11T05:13:18.252Z,60
2019-05-11T05:14:17.642Z,60
2019-05-11T05:15:17.431Z,52
2019-05-11T05:16:17.425Z,56
2019-05-11T05:17:17.423Z,56
2019-05-11T05:18:17.406Z,60
2019-05-11T05:19:17.421Z,68
2019-05-11T05:20:17.166Z,68
2019-05-11T05:21:17.402Z,64
2019-05-11T05:22:17.387Z,60
2019-05-11T05:23:17.372Z,60
2019-05-11T05:24:17.370Z,56
2019-05-11T05:25:17.535Z,60
2019-05-11T05:26:17.115Z,60
2019-05-11T05:27:17.371Z,68
2019-05-11T05:28:17.429Z,84
2019-05-11T05:29:17.331Z,108
2019-05-11T05:30:17.352Z,128
2019-05-11T05:31:17.326Z,148
2019-05-11T05:32:17.325Z,152
2019-05-11T05:33:17.309Z,152
2019-05-11T05:34:17.298Z,204
2019-05-11T05:35:17.310Z,184
2019-05-11T05:36:17.280Z,164
2019-05-11T05:37:17.281Z,172
2019-05-11T05:38:17.384Z,156
2019-05-11T05:39:17.262Z,132
2019-05-11T05:40:17.265Z,104
2019-05-11T05:41:17.350Z,96
2019-05-11T05:42:17.240Z,100
2019-05-11T05:43:33.447Z,120
2019-05-11T05:44:17.255Z,136
2019-05-11T05:45:17.217Z,188
2019-05-11T05:46:17.208Z,264
2019-05-11T05:47:17.205Z,280
2019-05-11T05:48:17.228Z,264
2019-05-11T05:49:17.185Z,240
2019-05-11T05:50:17.194Z,204
2019-05-11T05:51:17.172Z,172
2019-05-11T05:52:17.195Z,164
2019-05-11T05:53:17.167Z,172
2019-05-11T05:54:17.163Z,156
2019-05-11T05:55:17.241Z,172
2019-05-11T05:56:17.142Z,212
2019-05-11T05:57:17.132Z,248
2019-05-11T05:58:17.139Z,256
2019-05-11T05:59:17.158Z,316
2019-05-11T06:00:17.129Z,284
2019-05-11T06:01:17.579Z,260
2019-05-11T06:02:17.130Z,264
2019-05-11T06:03:17.091Z,312
2019-05-11T06:04:17.078Z,316
2019-05-11T06:05:16.833Z,312
2019-05-11T06:06:16.839Z,328
2019-05-11T06:07:17.067Z,320
2019-05-11T06:08:17.048Z,344
2019-05-11T06:09:17.124Z,472
2019-05-11T06:10:17.061Z,436
2019-05-11T06:11:16.533Z,304
2019-05-11T06:12:17.031Z,328
2019-05-11T06:13:17.017Z,352
2019-05-11T06:14:16.764Z,308
2019-05-11T06:15:16.769Z,364
2019-05-11T06:16:17.037Z,452
2019-05-11T06:17:17.024Z,536
2019-05-11T06:18:17.047Z,620
2019-05-11T06:19:16.989Z,564
2019-05-11T06:20:17.198Z,528
2019-05-11T06:21:16.974Z,616
2019-05-11T06:22:16.955Z,716
2019-05-11T06:23:16.958Z,796
2019-05-11T06:24:17.008Z,852
2019-05-11T06:25:16.980Z,808
2019-05-11T06:26:16.928Z,712
2019-05-11T06:27:16.915Z,616
2019-05-11T06:28:16.948Z,524
2019-05-11T06:29:16.906Z,536
2019-05-11T06:30:16.913Z,636
2019-05-11T06:31:16.643Z,484
2019-05-11T06:32:16.879Z,416
2019-05-11T06:33:16.879Z,400
2019-05-11T06:34:16.877Z,428
2019-05-11T06:35:16.865Z,612
2019-05-11T06:36:16.856Z,536
2019-05-11T06:37:16.840Z,568
2019-05-11T06:38:16.840Z,684
2019-05-11T06:39:16.832Z,688
2019-05-11T06:40:16.843Z,576
2019-05-11T06:41:16.819Z,328
2019-05-11T06:42:16.817Z,212
2019-05-11T06:43:16.942Z,164
2019-05-11T06:44:16.808Z,244
2019-05-11T06:45:16.789Z,376
2019-05-11T06:46:16.814Z,376
2019-05-11T06:47:16.774Z,452
2019-05-11T06:48:16.782Z,560
2019-05-11T06:49:16.766Z,556
2019-05-11T06:50:16.544Z,528
2019-05-11T06:51:16.777Z,480
2019-05-11T06:52:16.793Z,476
2019-05-11T06:53:16.740Z,500
2019-05-11T06:54:16.730Z,572
2019-05-11T06:55:16.759Z,600
2019-05-11T06:56:16.710Z,596
2019-05-11T06:57:16.703Z,468
2019-05-11T06:58:16.697Z,492
2019-05-11T06:59:16.461Z,648
2019-05-11T07:00:16.184Z,632
2019-05-11T07:01:16.675Z,648
2019-05-11T07:02:16.662Z,540
2019-05-11T07:03:16.683Z,536
2019-05-11T07:04:16.661Z,404
2019-05-11T07:05:16.641Z,384
2019-05-11T07:06:16.643Z,392
2019-05-11T07:07:16.625Z,468
2019-05-11T07:08:16.620Z,492
2019-05-11T07:09:16.621Z,460
2019-05-11T07:10:16.626Z,404
2019-05-11T07:11:16.615Z,356
2019-05-11T07:12:16.923Z,328
2019-05-11T07:13:16.590Z,312
2019-05-11T07:14:27.476Z,360
2019-05-11T07:15:16.325Z,364
2019-05-11T07:16:16.590Z,352
2019-05-11T07:17:16.588Z,360
2019-05-11T07:18:16.344Z,328
2019-05-11T07:19:16.548Z,348
2019-05-11T07:20:16.534Z,420
2019-05-11T07:21:16.538Z,400
2019-05-11T07:22:16.274Z,368
2019-05-11T07:23:16.509Z,336
2019-05-11T07:24:16.508Z,296
2019-05-11T07:25:16.498Z,300
2019-05-11T07:26:16.519Z,344
2019-05-11T07:27:16.490Z,384
2019-05-11T07:28:16.557Z,436
2019-05-11T07:29:16.468Z,496
2019-05-11T07:30:16.534Z,576
2019-05-11T07:31:16.509Z,548
2019-05-11T07:32:31.799Z,568
2019-05-11T07:33:18.254Z,568
2019-05-11T07:34:18.294Z,468
2019-05-11T07:35:18.703Z,388
2019-05-11T07:36:17.709Z,364
2019-05-11T07:37:18.301Z,336
2019-05-11T07:38:18.318Z,336
2019-05-11T07:39:18.452Z,348
2019-05-11T07:40:18.472Z,360
2019-05-11T07:41:17.625Z,388
2019-05-11T07:42:18.000Z,448
2019-05-11T07:43:18.747Z,536
2019-05-11T07:44:19.054Z,588
2019-05-11T07:45:17.995Z,536
2019-05-11T07:46:18.170Z,608
2019-05-11T07:47:18.583Z,664
2019-05-11T07:48:18.361Z,836
2019-05-11T07:49:17.916Z,768
2019-05-11T07:50:18.087Z,848
2019-05-11T07:51:18.216Z,1008
2019-05-11T07:52:18.120Z,980
2019-05-11T07:53:18.507Z,960
2019-05-11T07:54:18.461Z,1048
2019-05-11T07:55:18.713Z,1168
2019-05-11T07:56:18.410Z,1356
2019-05-11T07:57:16.013Z,1560
2019-05-11T07:58:19.686Z,1284
2019-05-11T07:59:18.301Z,1092
2019-05-11T08:00:18.013Z,972
2019-05-11T08:01:18.569Z,996
2019-05-11T08:02:17.744Z,1112
2019-05-11T08:03:18.058Z,1084
2019-05-11T08:04:18.290Z,1032
2019-05-11T08:05:17.943Z,1008
2019-05-11T08:06:18.196Z,784
2019-05-11T08:07:18.020Z,920
2019-05-11T08:08:18.030Z,996
2019-05-11T08:09:18.353Z,1264
2019-05-11T08:10:18.298Z,1140
2019-05-11T08:11:18.230Z,828
2019-05-11T08:12:16.273Z,676
2019-05-11T08:13:17.803Z,568
2019-05-11T08:14:18.238Z,492
2019-05-11T08:15:23.071Z,568
2019-05-11T08:16:18.238Z,436
2019-05-11T08:17:18.627Z,392
2019-05-11T08:18:16.125Z,348
2019-05-11T08:19:20.744Z,372
2019-05-11T08:20:18.407Z,360
2019-05-11T08:21:17.792Z,568
2019-05-11T08:22:16.086Z,620
2019-05-11T08:23:18.003Z,624
2019-05-11T08:24:17.970Z,640
2019-05-11T08:25:18.188Z,744
2019-05-11T08:26:16.056Z,828
2019-05-11T08:27:15.798Z,820
2019-05-11T08:28:20.766Z,856
2019-05-11T08:29:18.327Z,816
2019-05-11T08:30:16.039Z,700
2019-05-11T08:31:18.393Z,616
2019-05-11T08:32:18.066Z,576
2019-05-11T08:33:18.094Z,540
2019-05-11T08:34:18.003Z,528
2019-05-11T08:35:17.875Z,500
2019-05-11T08:36:18.016Z,480
2019-05-11T08:37:16.150Z,496
2019-05-11T08:38:18.014Z,524
2019-05-11T08:39:17.947Z,500
2019-05-11T08:40:17.995Z,456
2019-05-11T08:41:18.165Z,428
2019-05-11T08:42:17.827Z,432
2019-05-11T08:43:17.929Z,468
2019-05-11T08:44:18.153Z,520
2019-05-11T08:45:30.481Z,616
2019-05-11T08:46:18.244Z,636
2019-05-11T08:47:17.200Z,672
2019-05-11T08:48:15.993Z,652
2019-05-11T08:49:18.961Z,608
2019-05-11T08:50:18.679Z,588
2019-05-11T08:51:15.880Z,576
2019-05-11T08:52:15.623Z,552
2019-05-11T08:53:17.810Z,576
2019-05-11T08:54:18.256Z,648
2019-05-11T08:55:15.850Z,664
2019-05-11T08:56:21.381Z,652
2019-05-11T08:57:17.745Z,644
2019-05-11T08:58:18.991Z,632
2019-05-11T08:59:18.307Z,644
2019-05-11T09:00:17.847Z,732
2019-05-11T09:01:18.268Z,812
2019-05-11T09:02:15.541Z,824
2019-05-11T09:03:17.837Z,876
2019-05-11T09:04:18.203Z,812
2019-05-11T09:05:18.383Z,772
2019-05-11T09:06:17.846Z,752
2019-05-11T09:07:15.507Z,820
2019-05-11T09:08:15.751Z,904
2019-05-11T09:09:20.448Z,1028
2019-05-11T09:10:15.735Z,996
2019-05-11T09:11:15.776Z,912
2019-05-11T09:12:15.466Z,780
2019-05-11T09:13:15.720Z,648
2019-05-11T09:14:15.709Z,588
2019-05-11T09:15:37.934Z,560
2019-05-11T09:16:18.916Z,564
2019-05-11T09:17:15.433Z,568
2019-05-11T09:18:15.740Z,572
2019-05-11T09:19:17.772Z,584
2019-05-11T09:20:17.958Z,592
2019-05-11T09:21:15.437Z,608
2019-05-11T09:22:15.412Z,648
2019-05-11T09:23:30.624Z,720
2019-05-11T09:24:15.842Z,808
2019-05-11T09:25:18.221Z,900
2019-05-11T09:26:18.073Z,944
2019-05-11T09:27:15.374Z,920
2019-05-11T09:28:17.970Z,980
2019-05-11T09:29:17.899Z,1020
2019-05-11T09:30:15.487Z,1000
2019-05-11T09:31:15.864Z,1080
2019-05-11T09:32:17.869Z,1056
2019-05-11T09:33:18.449Z,968
2019-05-11T09:34:18.055Z,908
2019-05-11T09:35:15.474Z,928
2019-05-11T09:36:17.964Z,956
2019-05-11T09:37:15.307Z,1008
2019-05-11T09:38:15.550Z,1104
2019-05-11T09:39:17.697Z,1156
2019-05-11T09:40:15.521Z,1136
2019-05-11T09:41:20.642Z,1112
2019-05-11T09:42:15.257Z,1032
2019-05-11T09:43:17.804Z,708
2019-05-11T09:44:18.191Z,568
2019-05-11T09:45:15.490Z,600
2019-05-11T09:46:15.715Z,628
2019-05-11T09:47:15.766Z,540
2019-05-11T09:48:17.925Z,488
2019-05-11T09:49:15.460Z,476
2019-05-11T09:50:17.833Z,688
2019-05-11T09:51:15.191Z,884
2019-05-11T09:52:15.194Z,1316
2019-05-11T09:53:17.658Z,1412
2019-05-11T09:54:15.431Z,1408
2019-05-11T09:55:16.119Z,1120
2019-05-11T09:56:15.178Z,824
2019-05-11T09:57:15.696Z,524
2019-05-11T09:58:15.834Z,456
2019-05-11T09:59:17.827Z,536
2019-05-11T10:00:17.871Z,496
2019-05-11T10:01:18.207Z,708
2019-05-11T10:02:18.491Z,1032
2019-05-11T10:03:15.549Z,928
2019-05-11T10:04:18.049Z,784
2019-05-11T10:05:15.676Z,668
2019-05-11T10:06:15.683Z,508
2019-05-11T10:07:18.063Z,520
2019-05-11T10:08:15.091Z,584
2019-05-11T10:09:15.636Z,712
2019-05-11T10:10:18.583Z,620
2019-05-11T10:11:15.697Z,468
2019-05-11T10:12:15.222Z,440
2019-05-11T10:13:15.462Z,484
2019-05-11T10:14:15.654Z,428
2019-05-11T10:15:15.792Z,368
2019-05-11T10:16:20.172Z,428
2019-05-11T10:17:15.003Z,468
2019-05-11T10:18:15.548Z,412
2019-05-11T10:19:17.846Z,404
2019-05-11T10:20:18.108Z,340
2019-05-11T10:21:15.432Z,284
2019-05-11T10:22:15.297Z,232
2019-05-11T10:23:15.672Z,200
2019-05-11T10:24:17.530Z,240
2019-05-11T10:25:18.104Z,280
2019-05-11T10:26:15.293Z,208
2019-05-11T10:27:15.697Z,236
2019-05-11T10:28:17.844Z,264
2019-05-11T10:29:15.281Z,252
2019-05-11T10:30:15.543Z,252
2019-05-11T10:31:17.982Z,228
2019-05-11T10:32:15.259Z,208
2019-05-11T10:33:15.316Z,200
2019-05-11T10:34:17.905Z,168
2019-05-11T10:35:15.444Z,168
2019-05-11T10:36:15.584Z,212
2019-05-11T10:37:17.639Z,240
2019-05-11T10:38:17.931Z,268
2019-05-11T10:39:15.142Z,276
2019-05-11T10:40:18.853Z,264
2019-05-11T10:41:18.035Z,260
2019-05-11T10:42:17.763Z,268
2019-05-11T10:43:15.258Z,288
2019-05-11T10:44:15.527Z,284
2019-05-11T10:45:17.951Z,292
2019-05-11T10:46:30.996Z,300
2019-05-11T10:47:15.481Z,364
2019-05-11T10:48:17.680Z,396
2019-05-11T10:49:15.326Z,436
2019-05-11T10:50:15.934Z,452
2019-05-11T10:51:15.527Z,384
2019-05-11T10:52:17.971Z,344
2019-05-11T10:53:15.287Z,320
2019-05-11T10:54:18.371Z,300
2019-05-11T10:55:18.869Z,328
2019-05-11T10:56:17.813Z,336
2019-05-11T10:57:15.623Z,320
2019-05-11T10:58:18.316Z,324
2019-05-11T10:59:18.715Z,324
2019-05-11T11:00:17.621Z,308
2019-05-11T11:01:18.098Z,292
2019-05-11T11:02:15.282Z,288
2019-05-11T11:03:17.825Z,288
2019-05-11T11:04:15.265Z,296
2019-05-11T11:05:15.413Z,304
2019-05-11T11:06:15.677Z,300
2019-05-11T11:07:19.436Z,288
2019-05-11T11:08:15.597Z,288
2019-05-11T11:09:17.480Z,320
2019-05-11T11:10:18.117Z,360
2019-05-11T11:11:15.374Z,392
2019-05-11T11:12:15.524Z,436
2019-05-11T11:13:15.617Z,448
2019-05-11T11:14:17.801Z,460
2019-05-11T11:15:15.050Z,480
2019-05-11T11:16:15.608Z,508
2019-05-11T11:17:15.998Z,560
2019-05-11T11:18:15.866Z,648
2019-05-11T11:19:14.905Z,712
2019-05-11T11:20:15.588Z,844
2019-05-11T11:21:19.874Z,1052
2019-05-11T11:22:49.701Z,1248
2019-05-11T11:23:17.870Z,1284
2019-05-11T11:24:14.980Z,1348
2019-05-11T11:25:15.109Z,1508
2019-05-11T11:26:15.525Z,1636
2019-05-11T11:27:18.441Z,1704
2019-05-11T11:28:17.502Z,1796
2019-05-11T11:29:17.854Z,1872
2019-05-11T11:30:18.068Z,1924
2019-05-11T11:31:15.129Z,1884
2019-05-11T11:32:15.309Z,1824
2019-05-11T11:33:15.015Z,1720
2019-05-11T11:34:15.469Z,1628
2019-05-11T11:35:15.796Z,1716
2019-05-11T11:36:17.635Z,1716
2019-05-11T11:37:17.222Z,1744
2019-05-11T11:38:18.004Z,1788
2019-05-11T11:39:15.628Z,1836
2019-05-11T11:40:17.614Z,1852
2019-05-11T11:41:14.946Z,1808
2019-05-11T11:42:17.665Z,1756
2019-05-11T11:43:18.026Z,1748
2019-05-11T11:44:15.191Z,1728
2019-05-11T11:45:15.232Z,1692
2019-05-11T11:46:15.584Z,1656
2019-05-11T11:47:20.845Z,1620
2019-05-11T11:48:15.651Z,1564
2019-05-11T11:49:15.302Z,1484
2019-05-11T11:50:17.778Z,1372
2019-05-11T11:51:15.293Z,1332
2019-05-11T11:52:15.527Z,1320
2019-05-11T11:53:15.623Z,1280
2019-05-11T11:54:18.149Z,1260
2019-05-11T11:55:15.275Z,1232
2019-05-11T11:56:15.599Z,1252
2019-05-11T11:57:14.991Z,1272
2019-05-11T11:58:15.485Z,1248
2019-05-11T11:59:17.744Z,1272
2019-05-11T12:00:18.228Z,1332
2019-05-11T12:01:15.290Z,1408
2019-05-11T12:02:15.901Z,1504
2019-05-11T12:03:15.251Z,1580
2019-05-11T12:04:15.533Z,1636
2019-05-11T12:05:17.624Z,1564
2019-05-11T12:06:17.855Z,1604
2019-05-11T12:07:17.752Z,1552
2019-05-11T12:08:15.310Z,1612
2019-05-11T12:09:18.135Z,1568
2019-05-11T12:10:15.103Z,1576
2019-05-11T12:11:15.145Z,1584
2019-05-11T12:12:15.693Z,1616
2019-05-11T12:13:15.897Z,1652
2019-05-11T12:14:15.927Z,1620
2019-05-11T12:15:17.740Z,1552
2019-05-11T12:16:15.024Z,1368
2019-05-11T12:17:20.542Z,1276
2019-05-11T12:18:15.454Z,1332
2019-05-11T12:19:15.115Z,1360
2019-05-11T12:20:18.015Z,1452
2019-05-11T12:21:15.255Z,1532
2019-05-11T12:22:15.838Z,1656
2019-05-11T12:23:17.903Z,1852
2019-05-11T12:24:15.232Z,1960
2019-05-11T12:25:15.193Z,2016
2019-05-11T12:26:17.695Z,2108
2019-05-11T12:27:14.952Z,2060
2019-05-11T12:28:15.209Z,1932
2019-05-11T12:29:15.422Z,1816
2019-05-11T12:30:17.761Z,1892
2019-05-11T12:31:17.659Z,1864
2019-05-11T12:32:15.378Z,1804
2019-05-11T12:33:15.447Z,1844
2019-05-11T12:34:17.731Z,1924
2019-05-11T12:35:17.787Z,1932
2019-05-11T12:36:15.128Z,2008
2019-05-11T12:37:17.495Z,1824
2019-05-11T12:38:15.027Z,1624
2019-05-11T12:39:15.705Z,1508
2019-05-11T12:40:17.744Z,1240
2019-05-11T12:41:15.994Z,1156
2019-05-11T12:42:17.851Z,1072
2019-05-11T12:43:15.378Z,976
2019-05-11T12:44:15.783Z,928
2019-05-11T12:45:14.974Z,880
2019-05-11T12:46:15.531Z,828
2019-05-11T12:47:30.739Z,800
2019-05-11T12:48:18.036Z,800
2019-05-11T12:49:14.833Z,764
2019-05-11T12:50:15.187Z,744
2019-05-11T12:51:15.222Z,716
2019-05-11T12:52:14.934Z,680
2019-05-11T12:53:15.257Z,668
2019-05-11T12:54:15.490Z,676
2019-05-11T12:55:17.868Z,680
2019-05-11T12:56:15.495Z,680
2019-05-11T12:57:15.134Z,688
2019-05-11T12:58:18.093Z,708
2019-05-11T12:59:15.455Z,716
2019-05-11T13:00:17.718Z,696
2019-05-11T13:01:17.966Z,684
2019-05-11T13:02:15.420Z,692
2019-05-11T13:03:15.303Z,696
2019-05-11T13:04:18.131Z,704
2019-05-11T13:05:17.820Z,744
2019-05-11T13:06:15.478Z,748
2019-05-11T13:07:19.604Z,776
2019-05-11T13:08:15.015Z,816
2019-05-11T13:09:14.862Z,816
2019-05-11T13:10:17.516Z,864
2019-05-11T13:11:15.119Z,888
2019-05-11T13:12:15.297Z,944
2019-05-11T13:13:17.963Z,952
2019-05-11T13:14:15.303Z,984
2019-05-11T13:15:17.386Z,1080
2019-05-11T13:16:18.264Z,1168
2019-05-11T13:17:15.054Z,1292
2019-05-11T13:18:15.645Z,1464
2019-05-11T13:19:17.510Z,1588
2019-05-11T13:20:20.409Z,1612
2019-05-11T13:21:14.960Z,1692
2019-05-11T13:22:15.140Z,1696
2019-05-11T13:23:14.950Z,1724
2019-05-11T13:24:15.633Z,1800
2019-05-11T13:25:17.658Z,1796
2019-05-11T13:26:20.335Z,1704
2019-05-11T13:27:17.823Z,1668
2019-05-11T13:28:17.739Z,1504
2019-05-11T13:29:14.758Z,1400
2019-05-11T13:30:15.183Z,1288
2019-05-11T13:31:15.504Z,1228
2019-05-11T13:32:15.070Z,1208
2019-05-11T13:33:15.859Z,1244
2019-05-11T13:34:17.686Z,1228
2019-05-11T13:35:17.895Z,1092
2019-05-11T13:36:18.332Z,1004
2019-05-11T13:37:15.331Z,936
2019-05-11T13:38:17.823Z,928
2019-05-11T13:39:17.913Z,892
2019-05-11T13:40:14.998Z,884
2019-05-11T13:41:15.179Z,840
2019-05-11T13:42:15.404Z,836
2019-05-11T13:43:15.592Z,784
2019-05-11T13:44:15.271Z,756
2019-05-11T13:45:17.573Z,808
2019-05-11T13:46:17.712Z,920
2019-05-11T13:47:17.607Z,916
2019-05-11T13:48:17.600Z,828
2019-05-11T13:49:17.775Z,664
2019-05-11T13:50:14.957Z,580
2019-05-11T13:51:18.114Z,540
2019-05-11T13:52:17.485Z,536
2019-05-11T13:53:14.924Z,536
2019-05-11T13:54:15.115Z,548
2019-05-11T13:55:15.025Z,564
2019-05-11T13:56:15.252Z,544
2019-05-11T13:57:15.246Z,524
2019-05-11T13:58:15.547Z,496
2019-05-11T13:59:15.503Z,476
2019-05-11T14:00:17.497Z,512
2019-05-11T14:01:15.047Z,552